sensor_id;sensor_type;location;lat;lon;timestamp;pressure;altitude;pressure_sealevel;temperature;humidity
31357;BME280;60001;48.404;11.738;2022-12-07T00:00:43;96219.13;;;3.89;83.15
31357;BME280;60001;48.404;11.738;2022-12-07T00:02:14;96214.91;;;3.88;82.88
31357;BME280;60001;48.404;11.738;2022-12-07T00:03:48;96208.09;;;3.87;82.90
31357;BME280;60001;48.404;11.738;2022-12-07T00:05:21;96212.50;;;3.87;83.21
31357;BME280;60001;48.404;11.738;2022-12-07T00:06:54;96213.34;;;3.80;82.77
31357;BME280;60001;48.404;11.738;2022-12-07T00:08:26;96208.75;;;3.82;82.79
31357;BME280;60001;48.404;11.738;2022-12-07T00:09:56;96210.53;;;3.82;83.23
31357;BME280;60001;48.404;11.738;2022-12-07T00:11:28;96209.13;;;3.79;82.96
31357;BME280;60001;48.404;11.738;2022-12-07T00:13:00;96211.97;;;3.78;83.47
31357;BME280;60001;48.404;11.738;2022-12-07T00:14:32;96210.97;;;3.79;82.87
31357;BME280;60001;48.404;11.738;2022-12-07T00:16:06;96205.34;;;3.75;83.33
31357;BME280;60001;48.404;11.738;2022-12-07T00:17:38;96213.56;;;3.79;83.09
31357;BME280;60001;48.404;11.738;2022-12-07T00:19:11;96204.50;;;3.81;83.05
31357;BME280;60001;48.404;11.738;2022-12-07T00:20:43;96203.69;;;3.81;83.27
31357;BME280;60001;48.404;11.738;2022-12-07T00:22:15;96203.69;;;3.81;83.02
31357;BME280;60001;48.404;11.738;2022-12-07T00:23:49;96204.50;;;3.81;83.22
31357;BME280;60001;48.404;11.738;2022-12-07T00:25:21;96203.13;;;3.79;83.20
31357;BME280;60001;48.404;11.738;2022-12-07T00:26:53;96208.13;;;3.80;83.20
31357;BME280;60001;48.404;11.738;2022-12-07T00:28:24;96206.31;;;3.81;82.96
31357;BME280;60001;48.404;11.738;2022-12-07T00:29:55;96203.50;;;3.82;82.81
31357;BME280;60001;48.404;11.738;2022-12-07T00:31:29;96207.72;;;3.83;83.04
31357;BME280;60001;48.404;11.738;2022-12-07T00:33:01;96206.94;;;3.83;83.01
31357;BME280;60001;48.404;11.738;2022-12-07T00:34:33;96208.53;;;3.84;83.19
31357;BME280;60001;48.404;11.738;2022-12-07T00:36:07;96200.28;;;3.80;82.61
31357;BME280;60001;48.404;11.738;2022-12-07T00:37:41;96207.13;;;3.81;82.65
31357;BME280;60001;48.404;11.738;2022-12-07T00:39:13;96206.13;;;3.82;82.90
31357;BME280;60001;48.404;11.738;2022-12-07T00:40:54;96205.91;;;3.84;83.24
31357;BME280;60001;48.404;11.738;2022-12-07T00:42:25;96211.94;;;3.84;82.61
31357;BME280;60001;48.404;11.738;2022-12-07T00:43:58;96206.94;;;3.83;82.98
31357;BME280;60001;48.404;11.738;2022-12-07T00:45:29;96204.09;;;3.84;82.74
31357;BME280;60001;48.404;11.738;2022-12-07T00:47:01;96205.91;;;3.84;82.76
31357;BME280;60001;48.404;11.738;2022-12-07T00:48:33;96203.69;;;3.81;82.74
31357;BME280;60001;48.404;11.738;2022-12-07T00:50:05;96212.34;;;3.81;82.69
31357;BME280;60001;48.404;11.738;2022-12-07T00:51:37;96211.75;;;3.79;83.24
31357;BME280;60001;48.404;11.738;2022-12-07T00:53:11;96202.31;;;3.78;82.53
31357;BME280;60001;48.404;11.738;2022-12-07T00:54:41;96201.53;;;3.78;82.61
31357;BME280;60001;48.404;11.738;2022-12-07T00:56:15;96207.75;;;3.77;83.02
31357;BME280;60001;48.404;11.738;2022-12-07T00:57:46;96208.78;;;3.76;83.03
31357;BME280;60001;48.404;11.738;2022-12-07T00:59:18;96202.53;;;3.77;82.79
31357;BME280;60001;48.404;11.738;2022-12-07T01:00:50;96202.72;;;3.75;82.48
31357;BME280;60001;48.404;11.738;2022-12-07T01:02:22;96210.38;;;3.77;82.83
31357;BME280;60001;48.404;11.738;2022-12-07T01:03:54;96201.53;;;3.78;83.16
31357;BME280;60001;48.404;11.738;2022-12-07T01:05:26;96203.91;;;3.79;82.94
31357;BME280;60001;48.404;11.738;2022-12-07T01:06:56;96202.91;;;3.80;83.08
31357;BME280;60001;48.404;11.738;2022-12-07T01:08:30;96207.31;;;3.80;83.19
31357;BME280;60001;48.404;11.738;2022-12-07T01:10:00;96199.94;;;3.77;83.03
31357;BME280;60001;48.404;11.738;2022-12-07T01:11:33;96204.72;;;3.80;82.47
31357;BME280;60001;48.404;11.738;2022-12-07T01:13:05;96204.50;;;3.81;83.21
31357;BME280;60001;48.404;11.738;2022-12-07T01:14:36;96209.34;;;3.78;82.72
31357;BME280;60001;48.404;11.738;2022-12-07T01:16:13;96208.34;;;3.79;83.06
31357;BME280;60001;48.404;11.738;2022-12-07T01:17:45;96203.34;;;3.77;82.74
31357;BME280;60001;48.404;11.738;2022-12-07T01:19:17;96206.75;;;3.78;82.64
31357;BME280;60001;48.404;11.738;2022-12-07T01:20:57;96205.16;;;3.77;82.87
31357;BME280;60001;48.404;11.738;2022-12-07T01:22:28;96203.56;;;3.76;82.57
31357;BME280;60001;48.404;11.738;2022-12-07T01:24:02;96207.16;;;3.75;82.67
31357;BME280;60001;48.404;11.738;2022-12-07T01:25:34;96204.53;;;3.75;82.48
31357;BME280;60001;48.404;11.738;2022-12-07T01:27:05;96210.78;;;3.74;82.68
31357;BME280;60001;48.404;11.738;2022-12-07T01:28:37;96206.56;;;3.73;82.55
31357;BME280;60001;48.404;11.738;2022-12-07T01:30:10;96216.44;;;3.71;82.87
31357;BME280;60001;48.404;11.738;2022-12-07T01:31:42;96190.75;;;3.61;82.50
31357;BME280;60001;48.404;11.738;2022-12-07T01:33:14;96213.59;;;3.72;82.89
31357;BME280;60001;48.404;11.738;2022-12-07T01:34:47;96208.59;;;3.71;82.64
31357;BME280;60001;48.404;11.738;2022-12-07T01:36:21;96205.41;;;3.69;82.54
31357;BME280;60001;48.404;11.738;2022-12-07T01:37:53;96206.22;;;3.69;82.79
31357;BME280;60001;48.404;11.738;2022-12-07T01:39:26;96202.97;;;3.67;82.96
31357;BME280;60001;48.404;11.738;2022-12-07T01:40:59;96205.41;;;3.69;82.64
31357;BME280;60001;48.404;11.738;2022-12-07T01:42:31;96197.97;;;3.66;83.09
31357;BME280;60001;48.404;11.738;2022-12-07T01:44:11;96197.97;;;3.66;82.80
31357;BME280;60001;48.404;11.738;2022-12-07T01:45:43;96202.19;;;3.67;82.82
31357;BME280;60001;48.404;11.738;2022-12-07T01:47:15;96198.78;;;3.66;83.24
31357;BME280;60001;48.404;11.738;2022-12-07T01:48:47;96203.78;;;3.68;83.41
31357;BME280;60001;48.404;11.738;2022-12-07T01:50:19;96206.59;;;3.66;82.67
31357;BME280;60001;48.404;11.738;2022-12-07T01:51:58;96196.16;;;3.66;82.72
31357;BME280;60001;48.404;11.738;2022-12-07T01:53:37;96199.00;;;3.65;83.03
31357;BME280;60001;48.404;11.738;2022-12-07T01:55:15;96191.16;;;3.65;82.91
31357;BME280;60001;48.404;11.738;2022-12-07T01:56:52;96178.16;;;3.58;83.19
31357;BME280;60001;48.404;11.738;2022-12-07T01:58:26;96190.16;;;3.66;83.48
31357;BME280;60001;48.404;11.738;2022-12-07T01:59:59;96188.53;;;3.65;83.48
31357;BME280;60001;48.404;11.738;2022-12-07T02:01:31;96187.34;;;3.61;83.19
31357;BME280;60001;48.404;11.738;2022-12-07T02:03:07;96191.38;;;3.63;82.84
31357;BME280;60001;48.404;11.738;2022-12-07T02:04:40;96197.63;;;3.62;83.12
31357;BME280;60001;48.404;11.738;2022-12-07T02:06:16;96191.59;;;3.62;82.94
31357;BME280;60001;48.404;11.738;2022-12-07T02:07:49;96194.00;;;3.63;82.93
31357;BME280;60001;48.404;11.738;2022-12-07T02:09:22;96186.38;;;3.62;83.05
31357;BME280;60001;48.404;11.738;2022-12-07T02:10:55;96198.41;;;3.63;82.90
31357;BME280;60001;48.404;11.738;2022-12-07T02:12:27;96198.19;;;3.64;83.30
31357;BME280;60001;48.404;11.738;2022-12-07T02:13:59;96201.03;;;3.63;83.19
31357;BME280;60001;48.404;11.738;2022-12-07T02:15:45;96199.44;;;3.62;83.21
31357;BME280;60001;48.404;11.738;2022-12-07T02:17:31;96189.59;;;3.57;83.22
31357;BME280;60001;48.404;11.738;2022-12-07T02:19:45;96190.63;;;3.56;82.62
31357;BME280;60001;48.404;11.738;2022-12-07T02:21:32;96189.03;;;3.55;83.06
31357;BME280;60001;48.404;11.738;2022-12-07T02:25:33;96192.44;;;3.55;83.02
31357;BME280;60001;48.404;11.738;2022-12-07T02:27:36;96183.78;;;3.55;83.28
31357;BME280;60001;48.404;11.738;2022-12-07T02:29:22;96190.22;;;3.52;83.42
31357;BME280;60001;48.404;11.738;2022-12-07T02:31:01;96192.63;;;3.54;83.03
31357;BME280;60001;48.404;11.738;2022-12-07T02:32:44;96191.81;;;3.53;82.80
31357;BME280;60001;48.404;11.738;2022-12-07T02:34:27;96193.41;;;3.54;83.01
31357;BME280;60001;48.404;11.738;2022-12-07T02:36:06;96198.63;;;3.54;83.53
31357;BME280;60001;48.404;11.738;2022-12-07T02:37:46;96194.44;;;3.53;83.03
31357;BME280;60001;48.404;11.738;2022-12-07T02:39:28;96185.78;;;3.53;83.21
31357;BME280;60001;48.404;11.738;2022-12-07T02:41:09;96188.63;;;3.51;82.99
31357;BME280;60001;48.404;11.738;2022-12-07T02:42:46;96193.84;;;3.51;83.47
31357;BME280;60001;48.404;11.738;2022-12-07T02:44:24;96193.84;;;3.51;83.54
31357;BME280;60001;48.404;11.738;2022-12-07T02:46:03;96191.22;;;3.51;83.41
31357;BME280;60001;48.404;11.738;2022-12-07T02:47:37;96189.06;;;3.48;83.53
31357;BME280;60001;48.404;11.738;2022-12-07T02:49:11;96190.44;;;3.51;83.47
31357;BME280;60001;48.404;11.738;2022-12-07T02:50:44;96187.25;;;3.49;83.29
31357;BME280;60001;48.404;11.738;2022-12-07T02:52:16;96186.63;;;3.47;83.56
31357;BME280;60001;48.404;11.738;2022-12-07T02:53:48;96184.03;;;3.47;83.33
31357;BME280;60001;48.404;11.738;2022-12-07T02:55:27;96184.63;;;3.49;83.31
31357;BME280;60001;48.404;11.738;2022-12-07T02:57:13;96182.22;;;3.47;83.78
31357;BME280;60001;48.404;11.738;2022-12-07T02:58:58;96177.00;;;3.47;83.10
31357;BME280;60001;48.404;11.738;2022-12-07T03:00:44;96183.03;;;3.48;83.22
31357;BME280;60001;48.404;11.738;2022-12-07T03:02:28;96171.97;;;3.46;83.17
31357;BME280;60001;48.404;11.738;2022-12-07T03:04:21;96178.81;;;3.47;83.58
31357;BME280;60001;48.404;11.738;2022-12-07T03:06:11;96186.84;;;3.45;83.20
31357;BME280;60001;48.404;11.738;2022-12-07T03:07:55;96173.00;;;3.45;83.18
31357;BME280;60001;48.404;11.738;2022-12-07T03:09:37;96179.44;;;3.42;83.66
31357;BME280;60001;48.404;11.738;2022-12-07T03:11:16;96174.22;;;3.42;83.85
31357;BME280;60001;48.404;11.738;2022-12-07T03:12:59;96177.03;;;3.41;83.30
31357;BME280;60001;48.404;11.738;2022-12-07T03:14:40;96177.25;;;3.39;83.57
31357;BME280;60001;48.404;11.738;2022-12-07T03:16:18;96174.84;;;3.38;83.32
31357;BME280;60001;48.404;11.738;2022-12-07T03:17:55;96183.47;;;3.38;83.96
31357;BME280;60001;48.404;11.738;2022-12-07T03:19:32;96181.88;;;3.37;83.60
31357;BME280;60001;48.404;11.738;2022-12-07T03:21:11;96176.06;;;3.35;83.51
31357;BME280;60001;48.404;11.738;2022-12-07T03:22:47;96178.47;;;3.37;83.98
31357;BME280;60001;48.404;11.738;2022-12-07T03:24:23;96182.88;;;3.36;84.11
31357;BME280;60001;48.404;11.738;2022-12-07T03:26:00;96184.50;;;3.37;84.41
31357;BME280;60001;48.404;11.738;2022-12-07T03:27:38;96171.88;;;3.34;84.51
31357;BME280;60001;48.404;11.738;2022-12-07T03:29:16;96176.25;;;3.34;84.32
31357;BME280;60001;48.404;11.738;2022-12-07T03:30:54;96176.47;;;3.32;84.28
31357;BME280;60001;48.404;11.738;2022-12-07T03:32:33;96170.25;;;3.33;84.17
31357;BME280;60001;48.404;11.738;2022-12-07T03:34:12;96168.66;;;3.32;84.38
31357;BME280;60001;48.404;11.738;2022-12-07T03:35:53;96177.28;;;3.33;83.92
31357;BME280;60001;48.404;11.738;2022-12-07T03:37:34;96173.88;;;3.32;84.08
31357;BME280;60001;48.404;11.738;2022-12-07T03:39:17;96173.88;;;3.32;84.28
31357;BME280;60001;48.404;11.738;2022-12-07T03:40:58;96162.25;;;3.28;84.32
31357;BME280;60001;48.404;11.738;2022-12-07T03:42:33;96168.28;;;3.28;84.01
31357;BME280;60001;48.404;11.738;2022-12-07T03:44:06;96171.25;;;3.32;84.71
31357;BME280;60001;48.404;11.738;2022-12-07T03:45:40;96173.28;;;3.30;84.05
31357;BME280;60001;48.404;11.738;2022-12-07T03:47:20;96165.81;;;3.34;84.77
31357;BME280;60001;48.404;11.738;2022-12-07T03:49:05;96161.84;;;3.31;84.26
31357;BME280;60001;48.404;11.738;2022-12-07T03:50:43;96166.25;;;3.30;83.95
31357;BME280;60001;48.404;11.738;2022-12-07T03:52:24;96176.69;;;3.30;84.12
31357;BME280;60001;48.404;11.738;2022-12-07T03:54:06;96161.25;;;3.29;84.14
31357;BME280;60001;48.404;11.738;2022-12-07T03:55:43;96158.06;;;3.27;84.10
31357;BME280;60001;48.404;11.738;2022-12-07T03:57:17;96162.84;;;3.30;84.58
31357;BME280;60001;48.404;11.738;2022-12-07T03:58:52;96164.44;;;3.31;84.37
31357;BME280;60001;48.404;11.738;2022-12-07T04:00:25;96168.66;;;3.32;84.64
31357;BME280;60001;48.404;11.738;2022-12-07T04:02:01;96156.59;;;3.31;84.39
31357;BME280;60001;48.404;11.738;2022-12-07T04:03:34;96161.25;;;3.29;84.59
31357;BME280;60001;48.404;11.738;2022-12-07T04:05:08;96165.44;;;3.30;84.60
31357;BME280;60001;48.404;11.738;2022-12-07T04:06:40;96153.03;;;3.25;84.00
31357;BME280;60001;48.404;11.738;2022-12-07T04:08:12;96160.66;;;3.27;84.66
31357;BME280;60001;48.404;11.738;2022-12-07T04:09:44;96158.84;;;3.27;84.52
31357;BME280;60001;48.404;11.738;2022-12-07T04:11:16;96151.44;;;3.24;84.93
31357;BME280;60001;48.404;11.738;2022-12-07T04:12:48;96155.22;;;3.28;84.43
31357;BME280;60001;48.404;11.738;2022-12-07T04:14:19;96164.66;;;3.29;84.87
31357;BME280;60001;48.404;11.738;2022-12-07T04:15:50;96152.41;;;3.30;85.01
31357;BME280;60001;48.404;11.738;2022-12-07T04:17:22;96157.41;;;3.32;84.70
31357;BME280;60001;48.404;11.738;2022-12-07T04:18:54;96156.59;;;3.31;84.16
31357;BME280;60001;48.404;11.738;2022-12-07T04:20:26;96157.03;;;3.28;84.39
31357;BME280;60001;48.404;11.738;2022-12-07T04:21:59;96150.22;;;3.27;84.51
31357;BME280;60001;48.404;11.738;2022-12-07T04:23:31;96146.22;;;3.24;84.46
31357;BME280;60001;48.404;11.738;2022-12-07T04:25:02;96159.66;;;3.28;84.68
31357;BME280;60001;48.404;11.738;2022-12-07T04:26:34;96153.41;;;3.29;84.28
31357;BME280;60001;48.404;11.738;2022-12-07T04:28:06;96156.59;;;3.31;84.81
31357;BME280;60001;48.404;11.738;2022-12-07T04:29:38;96148.56;;;3.33;84.19
31357;BME280;60001;48.404;11.738;2022-12-07T04:31:10;96151.00;;;3.34;84.67
31357;BME280;60001;48.404;11.738;2022-12-07T04:32:40;96153.59;;;3.34;84.23
31357;BME280;60001;48.404;11.738;2022-12-07T04:34:13;96151.00;;;3.34;83.85
31357;BME280;60001;48.404;11.738;2022-12-07T04:35:47;96141.34;;;3.35;84.28
31357;BME280;60001;48.404;11.738;2022-12-07T04:37:18;96147.38;;;3.35;83.84
31357;BME280;60001;48.404;11.738;2022-12-07T04:38:52;96149.19;;;3.35;83.88
31357;BME280;60001;48.404;11.738;2022-12-07T04:40:24;96139.72;;;3.34;83.57
31357;BME280;60001;48.404;11.738;2022-12-07T04:41:56;96151.00;;;3.34;84.17
31357;BME280;60001;48.404;11.738;2022-12-07T04:43:28;96148.16;;;3.36;84.02
31357;BME280;60001;48.404;11.738;2022-12-07T04:45:00;96152.59;;;3.35;84.01
31357;BME280;60001;48.404;11.738;2022-12-07T04:46:32;96151.78;;;3.35;83.96
31357;BME280;60001;48.404;11.738;2022-12-07T04:48:05;96151.78;;;3.35;83.91
31357;BME280;60001;48.404;11.738;2022-12-07T04:49:36;96151.00;;;3.34;83.73
31357;BME280;60001;48.404;11.738;2022-12-07T04:51:10;96154.59;;;3.33;83.46
31357;BME280;60001;48.404;11.738;2022-12-07T04:52:41;96153.00;;;3.32;83.88
31357;BME280;60001;48.404;11.738;2022-12-07T04:54:14;96150.59;;;3.30;83.77
31357;BME280;60001;48.404;11.738;2022-12-07T04:55:46;96139.59;;;3.22;83.87
31357;BME280;60001;48.404;11.738;2022-12-07T04:57:18;96154.81;;;3.32;83.34
31357;BME280;60001;48.404;11.738;2022-12-07T04:58:52;96147.41;;;3.28;83.50
31357;BME280;60001;48.404;11.738;2022-12-07T05:00:24;96148.19;;;3.29;83.29
31357;BME280;60001;48.404;11.738;2022-12-07T05:01:56;96151.38;;;3.31;83.71
31357;BME280;60001;48.404;11.738;2022-12-07T05:03:27;96148.19;;;3.29;83.60
31357;BME280;60001;48.404;11.738;2022-12-07T05:04:58;96158.22;;;3.32;83.42
31357;BME280;60001;48.404;11.738;2022-12-07T05:06:31;96153.00;;;3.32;83.86
31357;BME280;60001;48.404;11.738;2022-12-07T05:08:03;96152.19;;;3.32;83.58
31357;BME280;60001;48.404;11.738;2022-12-07T05:09:35;96158.22;;;3.32;83.71
31357;BME280;60001;48.404;11.738;2022-12-07T05:11:07;96160.03;;;3.32;83.96
31357;BME280;60001;48.404;11.738;2022-12-07T05:12:39;96155.81;;;3.30;84.17
31357;BME280;60001;48.404;11.738;2022-12-07T05:14:14;96149.41;;;3.26;83.62
31357;BME280;60001;48.404;11.738;2022-12-07T05:15:46;96152.41;;;3.30;83.73
31357;BME280;60001;48.404;11.738;2022-12-07T05:17:18;96153.41;;;3.29;84.01
31357;BME280;60001;48.404;11.738;2022-12-07T05:18:50;96156.59;;;3.31;83.79
31357;BME280;60001;48.404;11.738;2022-12-07T05:20:21;96154.00;;;3.31;84.11
31357;BME280;60001;48.404;11.738;2022-12-07T05:21:55;96154.00;;;3.31;84.00
31357;BME280;60001;48.404;11.738;2022-12-07T05:23:26;96151.59;;;3.29;84.19
31357;BME280;60001;48.404;11.738;2022-12-07T05:24:58;96149.78;;;3.30;83.99
31357;BME280;60001;48.404;11.738;2022-12-07T05:26:30;96155.00;;;3.30;83.91
31357;BME280;60001;48.404;11.738;2022-12-07T05:28:03;96154.81;;;3.32;84.59
31357;BME280;60001;48.404;11.738;2022-12-07T05:29:35;96151.97;;;3.33;84.27
31357;BME280;60001;48.404;11.738;2022-12-07T05:31:06;96154.81;;;3.32;83.68
31357;BME280;60001;48.404;11.738;2022-12-07T05:32:38;96152.84;;;3.27;83.60
31357;BME280;60001;48.404;11.738;2022-12-07T05:34:10;96150.22;;;3.27;83.99
31357;BME280;60001;48.404;11.738;2022-12-07T05:35:42;96150.22;;;3.27;84.08
31357;BME280;60001;48.404;11.738;2022-12-07T05:37:15;96160.66;;;3.27;84.53
31357;BME280;60001;48.404;11.738;2022-12-07T05:38:47;96162.66;;;3.25;84.22
31357;BME280;60001;48.404;11.738;2022-12-07T05:40:18;96153.03;;;3.25;83.95
31357;BME280;60001;48.404;11.738;2022-12-07T05:41:50;96153.03;;;3.25;84.55
31357;BME280;60001;48.404;11.738;2022-12-07T05:43:39;96156.84;;;3.23;84.12
31357;BME280;60001;48.404;11.738;2022-12-07T05:45:11;96153.25;;;3.24;84.48
31357;BME280;60001;48.404;11.738;2022-12-07T05:46:43;96158.47;;;3.24;84.72
31357;BME280;60001;48.404;11.738;2022-12-07T05:48:14;96143.22;;;3.21;84.36
31357;BME280;60001;48.404;11.738;2022-12-07T05:49:46;96157.22;;;3.26;84.34
31357;BME280;60001;48.404;11.738;2022-12-07T05:51:19;96157.22;;;3.26;84.34
31357;BME280;60001;48.404;11.738;2022-12-07T05:52:52;96153.03;;;3.25;83.88
31357;BME280;60001;48.404;11.738;2022-12-07T05:54:23;96149.03;;;3.23;84.66
31357;BME280;60001;48.404;11.738;2022-12-07T05:55:55;96154.03;;;3.24;84.35
31357;BME280;60001;48.404;11.738;2022-12-07T05:57:27;96150.63;;;3.24;84.40
31357;BME280;60001;48.404;11.738;2022-12-07T05:58:59;96150.41;;;3.25;84.45
31357;BME280;60001;48.404;11.738;2022-12-07T06:00:48;96151.44;;;3.24;84.12
31357;BME280;60001;48.404;11.738;2022-12-07T06:02:19;96148.22;;;3.22;84.39
31357;BME280;60001;48.404;11.738;2022-12-07T06:03:50;96146.41;;;3.23;84.27
31357;BME280;60001;48.404;11.738;2022-12-07T06:05:21;96148.22;;;3.22;84.68
31357;BME280;60001;48.404;11.738;2022-12-07T06:06:53;96147.44;;;3.22;84.66
31357;BME280;60001;48.404;11.738;2022-12-07T06:08:27;96139.81;;;3.20;84.24
31357;BME280;60001;48.404;11.738;2022-12-07T06:09:58;96145.03;;;3.20;84.24
31357;BME280;60001;48.404;11.738;2022-12-07T06:11:30;96141.81;;;3.18;84.31
31357;BME280;60001;48.404;11.738;2022-12-07T06:13:19;96143.41;;;3.19;84.95
31357;BME280;60001;48.404;11.738;2022-12-07T06:14:50;96143.22;;;3.21;84.72
31357;BME280;60001;48.404;11.738;2022-12-07T06:16:22;96139.00;;;3.20;84.69
31357;BME280;60001;48.404;11.738;2022-12-07T06:17:54;96139.81;;;3.20;84.41
31357;BME280;60001;48.404;11.738;2022-12-07T06:19:25;96145.22;;;3.19;84.67
31357;BME280;60001;48.404;11.738;2022-12-07T06:20:56;96147.03;;;3.18;84.65
31357;BME280;60001;48.404;11.738;2022-12-07T06:22:28;96148.84;;;3.18;84.64
31357;BME280;60001;48.404;11.738;2022-12-07T06:24:01;96144.06;;;3.15;84.17
31357;BME280;60001;48.404;11.738;2022-12-07T06:25:32;96149.50;;;3.13;84.38
31357;BME280;60001;48.404;11.738;2022-12-07T06:27:04;96144.28;;;3.13;84.83
31357;BME280;60001;48.404;11.738;2022-12-07T06:28:36;96154.09;;;3.11;84.71
31357;BME280;60001;48.404;11.738;2022-12-07T06:30:07;96155.31;;;3.09;84.91
31357;BME280;60001;48.404;11.738;2022-12-07T06:31:39;96151.13;;;3.08;84.66
31357;BME280;60001;48.404;11.738;2022-12-07T06:33:11;96154.94;;;3.05;84.36
31357;BME280;60001;48.404;11.738;2022-12-07T06:34:43;96156.16;;;3.02;85.15
31357;BME280;60001;48.404;11.738;2022-12-07T06:36:15;96152.34;;;2.98;84.93
31357;BME280;60001;48.404;11.738;2022-12-07T06:37:47;96160.38;;;2.97;84.56
31357;BME280;60001;48.404;11.738;2022-12-07T06:39:22;96156.38;;;2.94;84.78
31357;BME280;60001;48.404;11.738;2022-12-07T06:40:54;96167.22;;;2.91;84.84
31357;BME280;60001;48.404;11.738;2022-12-07T06:42:25;96168.44;;;2.89;84.57
31357;BME280;60001;48.404;11.738;2022-12-07T06:43:57;96163.66;;;2.86;84.75
31357;BME280;60001;48.404;11.738;2022-12-07T06:45:29;96156.44;;;2.81;84.79
31357;BME280;60001;48.404;11.738;2022-12-07T06:47:01;96159.84;;;2.82;84.66
31357;BME280;60001;48.404;11.738;2022-12-07T06:48:33;96163.47;;;2.74;85.40
31357;BME280;60001;48.404;11.738;2022-12-07T06:50:06;96159.28;;;2.73;85.33
31357;BME280;60001;48.404;11.738;2022-12-07T06:51:38;96166.09;;;2.74;85.16
31357;BME280;60001;48.404;11.738;2022-12-07T06:53:11;96163.69;;;2.72;85.34
31357;BME280;60001;48.404;11.738;2022-12-07T06:54:44;96162.09;;;2.71;84.79
31357;BME280;60001;48.404;11.738;2022-12-07T06:56:16;96161.47;;;2.69;84.87
31357;BME280;60001;48.404;11.738;2022-12-07T06:57:48;96162.69;;;2.67;85.05
31357;BME280;60001;48.404;11.738;2022-12-07T06:59:20;96162.13;;;2.65;84.51
31357;BME280;60001;48.404;11.738;2022-12-07T07:00:52;96162.13;;;2.65;84.65
31357;BME280;60001;48.404;11.738;2022-12-07T07:02:23;96155.69;;;2.61;85.02
31357;BME280;60001;48.404;11.738;2022-12-07T07:03:55;96157.88;;;2.57;85.03
31357;BME280;60001;48.404;11.738;2022-12-07T07:05:27;96169.53;;;2.55;84.66
31357;BME280;60001;48.404;11.738;2022-12-07T07:06:59;96168.16;;;2.52;84.99
31357;BME280;60001;48.404;11.738;2022-12-07T07:08:31;96163.94;;;2.51;84.98
31357;BME280;60001;48.404;11.738;2022-12-07T07:10:05;96165.94;;;2.49;85.43
31357;BME280;60001;48.404;11.738;2022-12-07T07:11:37;96166.16;;;2.47;84.99
31357;BME280;60001;48.404;11.738;2022-12-07T07:13:09;96167.94;;;2.47;85.04
31357;BME280;60001;48.404;11.738;2022-12-07T07:14:41;96168.16;;;2.45;85.42
31357;BME280;60001;48.404;11.738;2022-12-07T07:16:13;96164.56;;;2.46;85.63
31357;BME280;60001;48.404;11.738;2022-12-07T07:17:45;96168.75;;;2.47;85.46
31357;BME280;60001;48.404;11.738;2022-12-07T07:19:17;96166.72;;;2.50;85.75
31357;BME280;60001;48.404;11.738;2022-12-07T07:20:50;96167.53;;;2.50;85.45
31357;BME280;60001;48.404;11.738;2022-12-07T07:22:22;96171.78;;;2.51;85.56
31357;BME280;60001;48.404;11.738;2022-12-07T07:23:54;96172.56;;;2.52;85.61
31357;BME280;60001;48.404;11.738;2022-12-07T07:25:28;96163.75;;;2.53;85.87
31357;BME280;60001;48.404;11.738;2022-12-07T07:27:00;96165.34;;;2.54;85.96
31357;BME280;60001;48.404;11.738;2022-12-07T07:28:32;96164.91;;;2.57;85.63
31357;BME280;60001;48.404;11.738;2022-12-07T07:30:05;96166.53;;;2.58;85.76
31357;BME280;60001;48.404;11.738;2022-12-07T07:31:37;96167.34;;;2.58;86.21
31357;BME280;60001;48.404;11.738;2022-12-07T07:33:09;96160.91;;;2.61;86.41
31357;BME280;60001;48.404;11.738;2022-12-07T07:34:42;96162.91;;;2.65;86.62
31357;BME280;60001;48.404;11.738;2022-12-07T07:36:13;96160.69;;;2.69;86.20
31357;BME280;60001;48.404;11.738;2022-12-07T07:37:45;96161.88;;;2.73;86.38
31357;BME280;60001;48.404;11.738;2022-12-07T07:39:17;96158.47;;;2.72;86.38
31357;BME280;60001;48.404;11.738;2022-12-07T07:40:50;96169.88;;;2.78;86.56
31357;BME280;60001;48.404;11.738;2022-12-07T07:42:22;96162.03;;;2.78;86.64
31357;BME280;60001;48.404;11.738;2022-12-07T07:43:54;96165.06;;;2.75;86.23
31357;BME280;60001;48.404;11.738;2022-12-07T07:45:26;96169.69;;;2.80;86.49
31357;BME280;60001;48.404;11.738;2022-12-07T07:46:58;96169.84;;;2.85;86.27
31357;BME280;60001;48.404;11.738;2022-12-07T07:48:30;96164.44;;;2.86;86.72
31357;BME280;60001;48.404;11.738;2022-12-07T07:50:02;96174.44;;;2.89;86.76
31357;BME280;60001;48.404;11.738;2022-12-07T07:51:34;96169.44;;;2.88;86.39
31357;BME280;60001;48.404;11.738;2022-12-07T07:53:06;96168.00;;;2.92;86.28
31357;BME280;60001;48.404;11.738;2022-12-07T07:54:38;96176.66;;;2.92;86.31
31357;BME280;60001;48.404;11.738;2022-12-07T07:56:11;96173.22;;;2.92;86.05
31357;BME280;60001;48.404;11.738;2022-12-07T07:57:43;96178.44;;;2.92;86.17
31357;BME280;60001;48.404;11.738;2022-12-07T07:59:15;96174.06;;;2.92;86.12
31357;BME280;60001;48.404;11.738;2022-12-07T08:00:47;96176.06;;;2.90;85.59
31357;BME280;60001;48.404;11.738;2022-12-07T08:02:20;96184.28;;;2.87;85.86
31357;BME280;60001;48.404;11.738;2022-12-07T08:03:52;96190.09;;;2.89;85.39
31357;BME280;60001;48.404;11.738;2022-12-07T08:05:24;96194.72;;;2.87;85.67
31357;BME280;60001;48.404;11.738;2022-12-07T08:06:56;96190.53;;;2.86;86.04
31357;BME280;60001;48.404;11.738;2022-12-07T08:08:28;96194.94;;;2.86;86.06
31357;BME280;60001;48.404;11.738;2022-12-07T08:10:00;96196.75;;;2.85;85.98
31357;BME280;60001;48.404;11.738;2022-12-07T08:11:33;96200.34;;;2.84;85.83
31357;BME280;60001;48.404;11.738;2022-12-07T08:13:06;96198.16;;;2.81;85.60
31357;BME280;60001;48.404;11.738;2022-12-07T08:14:44;96189.13;;;2.77;85.29
31357;BME280;60001;48.404;11.738;2022-12-07T08:16:16;96197.56;;;2.79;85.02
31357;BME280;60001;48.404;11.738;2022-12-07T08:17:48;96201.16;;;2.78;85.66
31357;BME280;60001;48.404;11.738;2022-12-07T08:19:20;96205.41;;;2.72;85.51
31357;BME280;60001;48.404;11.738;2022-12-07T08:20:51;96202.78;;;2.72;85.30